sensor_id;sensor_type;location;lat;lon;timestamp;pressure;altitude;pressure_sealevel;temperature;humidity
76728;BME280;65652;53.132;18.026;2023-02-28T00:00:12;102761.22;;;-2.18;66.85
76728;BME280;65652;53.132;18.026;2023-02-28T00:02:59;102763.48;;;-2.16;66.81
76728;BME280;65652;53.132;18.026;2023-02-28T00:05:26;102761.91;;;-2.17;66.82
76728;BME280;65652;53.132;18.026;2023-02-28T00:07:54;102763.13;;;-2.17;66.85
76728;BME280;65652;53.132;18.026;2023-02-28T00:10:24;102765.20;;;-2.17;66.83
76728;BME280;65652;53.132;18.026;2023-02-28T00:12:51;102762.95;;;-2.19;67.15
76728;BME280;65652;53.132;18.026;2023-02-28T00:15:18;102761.92;;;-2.19;66.90
76728;BME280;65652;53.132;18.026;2023-02-28T00:17:45;102758.63;;;-2.19;67.15
76728;BME280;65652;53.132;18.026;2023-02-28T00:20:12;102760.71;;;-2.19;66.82
76728;BME280;65652;53.132;18.026;2023-02-28T00:22:41;102757.95;;;-2.22;66.97
76728;BME280;65652;53.132;18.026;2023-02-28T00:25:08;102762.45;;;-2.25;66.82
76728;BME280;65652;53.132;18.026;2023-02-28T00:27:35;102762.98;;;-2.27;66.82
76728;BME280;65652;53.132;18.026;2023-02-28T00:30:05;102767.13;;;-2.29;67.15
76728;BME280;65652;53.132;18.026;2023-02-28T00:32:32;102768.17;;;-2.33;66.97
76728;BME280;65652;53.132;18.026;2023-02-28T00:35:01;102763.52;;;-2.36;67.46
76728;BME280;65652;53.132;18.026;2023-02-28T00:37:27;102765.23;;;-2.41;67.26
76728;BME280;65652;53.132;18.026;2023-02-28T00:39:54;102766.45;;;-2.45;67.40
76728;BME280;65652;53.132;18.026;2023-02-28T00:42:22;102761.95;;;-2.50;67.79
76728;BME280;65652;53.132;18.026;2023-02-28T00:44:48;102761.60;;;-2.55;67.52
76728;BME280;65652;53.132;18.026;2023-02-28T00:47:14;102759.37;;;-2.61;67.49
76728;BME280;65652;53.132;18.026;2023-02-28T00:49:40;102760.73;;;-2.64;67.65
76728;BME280;65652;53.132;18.026;2023-02-28T00:52:09;102761.61;;;-2.68;67.66
76728;BME280;65652;53.132;18.026;2023-02-28T00:54:36;102760.40;;;-2.73;68.02
76728;BME280;65652;53.132;18.026;2023-02-28T00:57:02;102766.61;;;-2.78;68.04
76728;BME280;65652;53.132;18.026;2023-02-28T00:59:28;102762.12;;;-2.77;67.98
76728;BME280;65652;53.132;18.026;2023-02-28T01:01:54;102764.35;;;-2.75;67.76
76728;BME280;65652;53.132;18.026;2023-02-28T01:04:21;102767.99;;;-2.72;67.93
76728;BME280;65652;53.132;18.026;2023-02-28T01:06:48;102769.90;;;-2.70;67.95
76728;BME280;65652;53.132;18.026;2023-02-28T01:09:14;102769.90;;;-2.67;68.01
76728;BME280;65652;53.132;18.026;2023-02-28T01:11:42;102771.46;;;-2.64;67.87
76728;BME280;65652;53.132;18.026;2023-02-28T01:14:14;102775.61;;;-2.61;68.15
76728;BME280;65652;53.132;18.026;2023-02-28T01:16:41;102776.30;;;-2.65;67.95
76728;BME280;65652;53.132;18.026;2023-02-28T01:19:07;102776.13;;;-2.69;68.11
76728;BME280;65652;53.132;18.026;2023-02-28T01:21:33;102776.14;;;-2.74;68.28
76728;BME280;65652;53.132;18.026;2023-02-28T01:24:01;102772.66;;;-2.78;68.38
76728;BME280;65652;53.132;18.026;2023-02-28T01:26:28;102772.84;;;-2.80;68.05
76728;BME280;65652;53.132;18.026;2023-02-28T01:28:55;102772.66;;;-2.84;68.45
76728;BME280;65652;53.132;18.026;2023-02-28T01:31:22;102770.58;;;-2.86;68.27
76728;BME280;65652;53.132;18.026;2023-02-28T01:33:49;102766.08;;;-2.90;68.36
76728;BME280;65652;53.132;18.026;2023-02-28T01:36:18;102762.95;;;-2.93;68.43
76728;BME280;65652;53.132;18.026;2023-02-28T01:38:45;102763.66;;;-2.94;68.54
76728;BME280;65652;53.132;18.026;2023-02-28T01:46:13;102758.96;;;-3.07;68.90
76728;BME280;65652;53.132;18.026;2023-02-28T01:48:48;102762.41;;;-3.11;69.08
76728;BME280;65652;53.132;18.026;2023-02-28T01:51:31;102757.76;;;-3.10;68.76
76728;BME280;65652;53.132;18.026;2023-02-28T01:54:02;102757.57;;;-3.11;68.69
76728;BME280;65652;53.132;18.026;2023-02-28T01:56:33;102755.15;;;-3.10;68.72
76728;BME280;65652;53.132;18.026;2023-02-28T01:59:03;102751.88;;;-3.09;68.56
76728;BME280;65652;53.132;18.026;2023-02-28T02:01:30;102753.79;;;-3.09;69.05
76728;BME280;65652;53.132;18.026;2023-02-28T02:03:59;102753.27;;;-3.07;68.65
76728;BME280;65652;53.132;18.026;2023-02-28T02:06:34;102753.10;;;-3.09;69.18
76728;BME280;65652;53.132;18.026;2023-02-28T02:09:01;102754.31;;;-3.07;69.13
76728;BME280;65652;53.132;18.026;2023-02-28T02:11:27;102755.86;;;-3.05;69.12
76728;BME280;65652;53.132;18.026;2023-02-28T02:36:32;102765.05;;;-2.93;69.16
76728;BME280;65652;53.132;18.026;2023-02-28T02:39:27;102766.07;;;-2.92;69.17
76728;BME280;65652;53.132;18.026;2023-02-28T02:42:00;102770.05;;;-2.97;68.86
76728;BME280;65652;53.132;18.026;2023-02-28T02:44:42;102765.38;;;-3.01;69.16
76728;BME280;65652;53.132;18.026;2023-02-28T02:47:14;102766.23;;;-3.05;68.92
76728;BME280;65652;53.132;18.026;2023-02-28T02:49:46;102768.98;;;-3.10;69.14
76728;BME280;65652;53.132;18.026;2023-02-28T02:52:17;102770.88;;;-3.15;69.30
76728;BME280;65652;53.132;18.026;2023-02-28T02:54:46;102769.83;;;-3.19;69.34
76728;BME280;65652;53.132;18.026;2023-02-28T02:57:38;102769.82;;;-3.24;69.22
76728;BME280;65652;53.132;18.026;2023-02-28T03:00:06;102771.52;;;-3.29;69.05
76728;BME280;65652;53.132;18.026;2023-02-28T03:02:36;102772.55;;;-3.33;69.20
76728;BME280;65652;53.132;18.026;2023-02-28T03:05:26;102771.50;;;-3.37;69.38
76728;BME280;65652;53.132;18.026;2023-02-28T03:07:55;102767.34;;;-3.42;69.38
76728;BME280;65652;53.132;18.026;2023-02-28T03:10:32;102770.09;;;-3.45;69.50
76728;BME280;65652;53.132;18.026;2023-02-28T03:16:22;102770.26;;;-3.47;69.49
76728;BME280;65652;53.132;18.026;2023-02-28T03:18:36;102772.14;;;-3.50;69.56
76728;BME280;65652;53.132;18.026;2023-02-28T03:23:38;102774.74;;;-3.48;69.75
76728;BME280;65652;53.132;18.026;2023-02-28T03:26:18;102772.69;;;-3.45;69.75
76728;BME280;65652;53.132;18.026;2023-02-28T03:31:33;102777.70;;;-3.43;69.90
76728;BME280;65652;53.132;18.026;2023-02-28T03:34:13;102779.42;;;-3.42;69.48
76728;BME280;65652;53.132;18.026;2023-02-28T03:36:49;102778.55;;;-3.42;69.65
76728;BME280;65652;53.132;18.026;2023-02-28T03:39:34;102780.48;;;-3.41;69.87
76728;BME280;65652;53.132;18.026;2023-02-28T03:42:05;102780.30;;;-3.40;69.60
76728;BME280;65652;53.132;18.026;2023-02-28T03:44:51;102784.09;;;-3.40;69.82
76728;BME280;65652;53.132;18.026;2023-02-28T03:47:36;102790.81;;;-3.42;69.67
76728;BME280;65652;53.132;18.026;2023-02-28T03:50:07;102787.18;;;-3.44;69.63
76728;BME280;65652;53.132;18.026;2023-02-28T03:52:44;102791.15;;;-3.45;69.59
76728;BME280;65652;53.132;18.026;2023-02-28T03:55:13;102793.21;;;-3.48;70.07
76728;BME280;65652;53.132;18.026;2023-02-28T03:57:56;102794.23;;;-3.50;69.97
76728;BME280;65652;53.132;18.026;2023-02-28T04:00:35;102792.67;;;-3.52;69.85
76728;BME280;65652;53.132;18.026;2023-02-28T04:03:03;102797.85;;;-3.54;70.11
76728;BME280;65652;53.132;18.026;2023-02-28T04:05:30;102800.27;;;-3.54;69.87
76728;BME280;65652;53.132;18.026;2023-02-28T04:08:05;102801.13;;;-3.54;69.77
76728;BME280;65652;53.132;18.026;2023-02-28T04:10:31;102799.23;;;-3.56;69.61
76728;BME280;65652;53.132;18.026;2023-02-28T04:12:57;102802.15;;;-3.58;69.66
76728;BME280;65652;53.132;18.026;2023-02-28T04:15:24;102801.44;;;-3.61;69.69
76728;BME280;65652;53.132;18.026;2023-02-28T04:17:50;102802.64;;;-3.63;69.74
76728;BME280;65652;53.132;18.026;2023-02-28T04:20:16;102800.39;;;-3.64;69.30
76728;BME280;65652;53.132;18.026;2023-02-28T04:22:43;102800.39;;;-3.66;69.62
76728;BME280;65652;53.132;18.026;2023-02-28T04:25:09;102801.07;;;-3.67;69.84
76728;BME280;65652;53.132;18.026;2023-02-28T04:27:35;102797.96;;;-3.68;70.13
76728;BME280;65652;53.132;18.026;2023-02-28T04:30:02;102800.55;;;-3.69;69.74
76728;BME280;65652;53.132;18.026;2023-02-28T04:32:28;102797.95;;;-3.69;69.93
76728;BME280;65652;53.132;18.026;2023-02-28T04:34:54;102800.86;;;-3.71;69.68
76728;BME280;65652;53.132;18.026;2023-02-28T04:37:20;102801.23;;;-3.71;69.51
76728;BME280;65652;53.132;18.026;2023-02-28T04:39:47;102801.92;;;-3.69;69.74
76728;BME280;65652;53.132;18.026;2023-02-28T04:42:13;102804.52;;;-3.67;69.62
76728;BME280;65652;53.132;18.026;2023-02-28T04:44:39;102806.42;;;-3.67;69.89
76728;BME280;65652;53.132;18.026;2023-02-28T04:47:06;102811.59;;;-3.68;69.92
76728;BME280;65652;53.132;18.026;2023-02-28T04:49:32;102813.67;;;-3.67;69.90
76728;BME280;65652;53.132;18.026;2023-02-28T04:51:58;102814.71;;;-3.65;70.00
76728;BME280;65652;53.132;18.026;2023-02-28T04:54:24;102813.52;;;-3.63;70.20
76728;BME280;65652;53.132;18.026;2023-02-28T04:56:51;102814.89;;;-3.65;69.97
76728;BME280;65652;53.132;18.026;2023-02-28T04:59:17;102811.26;;;-3.68;69.90
76728;BME280;65652;53.132;18.026;2023-02-28T05:01:47;102807.63;;;-3.70;69.98
76728;BME280;65652;53.132;18.026;2023-02-28T05:04:14;102812.28;;;-3.70;70.05
76728;BME280;65652;53.132;18.026;2023-02-28T05:06:40;102811.92;;;-3.73;69.91
76728;BME280;65652;53.132;18.026;2023-02-28T05:09:06;102818.28;;;-3.73;70.02
76728;BME280;65652;53.132;18.026;2023-02-28T05:11:33;102816.41;;;-3.71;69.95
76728;BME280;65652;53.132;18.026;2023-02-28T05:14:02;102819.52;;;-3.72;70.09
76728;BME280;65652;53.132;18.026;2023-02-28T05:16:29;102819.86;;;-3.72;70.14
76728;BME280;65652;53.132;18.026;2023-02-28T05:18:55;102818.13;;;-3.73;70.30
76728;BME280;65652;53.132;18.026;2023-02-28T05:21:26;102817.95;;;-3.74;70.21
76728;BME280;65652;53.132;18.026;2023-02-28T05:23:53;102818.46;;;-3.74;70.08
76728;BME280;65652;53.132;18.026;2023-02-28T05:26:20;102815.00;;;-3.75;70.10
76728;BME280;65652;53.132;18.026;2023-02-28T05:28:47;102816.73;;;-3.76;70.14
76728;BME280;65652;53.132;18.026;2023-02-28T05:31:13;102814.48;;;-3.78;69.97
76728;BME280;65652;53.132;18.026;2023-02-28T05:33:40;102815.51;;;-3.78;70.37
76728;BME280;65652;53.132;18.026;2023-02-28T05:36:06;102813.63;;;-3.75;69.95
76728;BME280;65652;53.132;18.026;2023-02-28T05:38:32;102813.46;;;-3.74;70.14
76728;BME280;65652;53.132;18.026;2023-02-28T05:40:59;102816.05;;;-3.73;69.90
76728;BME280;65652;53.132;18.026;2023-02-28T05:43:25;102816.41;;;-3.71;70.43
76728;BME280;65652;53.132;18.026;2023-02-28T05:45:51;102820.04;;;-3.70;69.81
76728;BME280;65652;53.132;18.026;2023-02-28T05:48:17;102821.08;;;-3.69;70.26
76728;BME280;65652;53.132;18.026;2023-02-28T05:50:44;102824.02;;;-3.69;70.13
76728;BME280;65652;53.132;18.026;2023-02-28T05:53:11;102826.61;;;-3.68;70.21
76728;BME280;65652;53.132;18.026;2023-02-28T05:55:38;102823.66;;;-3.69;70.18
76728;BME280;65652;53.132;18.026;2023-02-28T05:58:04;102823.66;;;-3.68;70.04
76728;BME280;65652;53.132;18.026;2023-02-28T06:00:30;102827.66;;;-3.67;70.15
76728;BME280;65652;53.132;18.026;2023-02-28T06:02:56;102826.27;;;-3.68;70.09
76728;BME280;65652;53.132;18.026;2023-02-28T06:05:25;102829.71;;;-3.68;70.22
76728;BME280;65652;53.132;18.026;2023-02-28T06:07:52;102834.56;;;-3.66;70.10
76728;BME280;65652;53.132;18.026;2023-02-28T06:10:18;102834.73;;;-3.64;70.16
76728;BME280;65652;53.132;18.026;2023-02-28T06:12:45;102834.77;;;-3.58;70.68
76728;BME280;65652;53.132;18.026;2023-02-28T06:15:13;102833.07;;;-3.52;70.37
76728;BME280;65652;53.132;18.026;2023-02-28T06:17:41;102834.52;;;-3.44;70.45
76728;BME280;65652;53.132;18.026;2023-02-28T06:20:08;102840.41;;;-3.35;70.42
76728;BME280;65652;53.132;18.026;2023-02-28T06:22:36;102838.71;;;-3.27;70.47
76728;BME280;65652;53.132;18.026;2023-02-28T06:25:03;102838.92;;;-3.19;70.31
76728;BME280;65652;53.132;18.026;2023-02-28T06:27:30;102839.13;;;-3.14;70.49
76728;BME280;65652;53.132;18.026;2023-02-28T06:29:57;102838.96;;;-3.07;70.65
76728;BME280;65652;53.132;18.026;2023-02-28T06:32:23;102842.80;;;-2.97;70.34
76728;BME280;65652;53.132;18.026;2023-02-28T06:34:49;102841.79;;;-2.86;70.56
76728;BME280;65652;53.132;18.026;2023-02-28T06:37:17;102839.75;;;-2.71;70.79
76728;BME280;65652;53.132;18.026;2023-02-28T06:39:43;102841.84;;;-2.56;70.48
76728;BME280;65652;53.132;18.026;2023-02-28T06:42:10;102845.14;;;-2.43;70.12
76728;BME280;65652;53.132;18.026;2023-02-28T06:44:36;102847.06;;;-2.33;70.22
76728;BME280;65652;53.132;18.026;2023-02-28T06:47:05;102846.18;;;-2.23;70.21
76728;BME280;65652;53.132;18.026;2023-02-28T06:49:33;102846.18;;;-2.12;70.28
76728;BME280;65652;53.132;18.026;2023-02-28T06:52:00;102844.79;;;-2.01;69.89
76728;BME280;65652;53.132;18.026;2023-02-28T06:54:26;102847.20;;;-1.92;69.93
76728;BME280;65652;53.132;18.026;2023-02-28T06:56:53;102851.52;;;-1.83;69.81
76728;BME280;65652;53.132;18.026;2023-02-28T06:59:20;102858.43;;;-1.72;69.52
76728;BME280;65652;53.132;18.026;2023-02-28T07:01:46;102857.02;;;-1.61;69.24
76728;BME280;65652;53.132;18.026;2023-02-28T07:04:13;102859.41;;;-1.51;69.08
76728;BME280;65652;53.132;18.026;2023-02-28T07:06:39;102865.80;;;-1.39;69.21
76728;BME280;65652;53.132;18.026;2023-02-28T07:09:05;102866.45;;;-1.27;69.02
76728;BME280;65652;53.132;18.026;2023-02-28T07:11:32;102867.26;;;-1.14;69.05
76728;BME280;65652;53.132;18.026;2023-02-28T07:13:58;102865.48;;;-1.02;68.91
76728;BME280;65652;53.132;18.026;2023-02-28T07:16:25;102864.23;;;-0.94;68.52
76728;BME280;65652;53.132;18.026;2023-02-28T07:18:53;102862.61;;;-0.83;68.46
76728;BME280;65652;53.132;18.026;2023-02-28T07:21:20;102865.31;;;-0.72;68.27
76728;BME280;65652;53.132;18.026;2023-02-28T07:23:46;102863.52;;;-0.62;68.21
76728;BME280;65652;53.132;18.026;2023-02-28T07:26:15;102860.85;;;-0.51;68.08
76728;BME280;65652;53.132;18.026;2023-02-28T07:28:42;102857.29;;;-0.39;67.94
76728;BME280;65652;53.132;18.026;2023-02-28T07:31:09;102854.94;;;-0.27;67.74
76728;BME280;65652;53.132;18.026;2023-02-28T07:33:36;102854.14;;;-0.13;67.68
76728;BME280;65652;53.132;18.026;2023-02-28T07:38:28;102854.00;;;0.20;67.67
76728;BME280;65652;53.132;18.026;2023-02-28T07:40:55;102855.55;;;0.38;67.34
76728;BME280;65652;53.132;18.026;2023-02-28T07:43:21;102854.64;;;0.57;67.18
76728;BME280;65652;53.132;18.026;2023-02-28T07:45:47;102848.14;;;0.79;67.13
76728;BME280;65652;53.132;18.026;2023-02-28T07:48:13;102847.11;;;1.02;66.90
76728;BME280;65652;53.132;18.026;2023-02-28T07:50:40;102843.27;;;1.28;66.99
76728;BME280;65652;53.132;18.026;2023-02-28T07:53:06;102841.33;;;1.54;66.28
76728;BME280;65652;53.132;18.026;2023-02-28T07:55:32;102844.88;;;1.83;65.99
76728;BME280;65652;53.132;18.026;2023-02-28T07:57:58;102844.58;;;2.10;65.53
76728;BME280;65652;53.132;18.026;2023-02-28T08:00:25;102846.07;;;2.41;65.34
76728;BME280;65652;53.132;18.026;2023-02-28T08:02:51;102845.63;;;2.74;65.00
76728;BME280;65652;53.132;18.026;2023-02-28T08:05:17;102845.08;;;3.07;64.63
76728;BME280;65652;53.132;18.026;2023-02-28T08:07:43;102847.31;;;3.40;64.19
76728;BME280;65652;53.132;18.026;2023-02-28T08:10:10;102844.27;;;3.72;63.67
76728;BME280;65652;53.132;18.026;2023-02-28T08:12:36;102850.17;;;4.01;62.90
76728;BME280;65652;53.132;18.026;2023-02-28T08:15:02;102848.20;;;4.16;62.43
76728;BME280;65652;53.132;18.026;2023-02-28T08:17:29;102850.59;;;4.32;61.89
76728;BME280;65652;53.132;18.026;2023-02-28T08:19:55;102852.05;;;4.49;62.13
76728;BME280;65652;53.132;18.026;2023-02-28T08:22:21;102846.77;;;4.74;61.80
76728;BME280;65652;53.132;18.026;2023-02-28T08:24:47;102845.73;;;4.98;60.88
76728;BME280;65652;53.132;18.026;2023-02-28T08:27:15;102843.44;;;5.16;60.54
76728;BME280;65652;53.132;18.026;2023-02-28T08:29:41;102840.30;;;5.33;60.14
76728;BME280;65652;53.132;18.026;2023-02-28T08:32:07;102832.83;;;5.58;60.30
76728;BME280;65652;53.132;18.026;2023-02-28T08:34:33;102830.68;;;5.86;59.55
76728;BME280;65652;53.132;18.026;2023-02-28T08:37:00;102824.23;;;6.11;59.25
76728;BME280;65652;53.132;18.026;2023-02-28T08:39:26;102827.37;;;6.36;58.80
76728;BME280;65652;53.132;18.026;2023-02-28T08:41:52;102827.56;;;6.59;58.73
76728;BME280;65652;53.132;18.026;2023-02-28T08:44:18;102822.12;;;6.88;58.22
76728;BME280;65652;53.132;18.026;2023-02-28T08:46:45;102819.80;;;7.16;57.78
76728;BME280;65652;53.132;18.026;2023-02-28T08:49:11;102818.10;;;7.41;57.02
76728;BME280;65652;53.132;18.026;2023-02-28T08:51:38;102809.03;;;7.60;56.40
76728;BME280;65652;53.132;18.026;2023-02-28T08:54:05;102813.83;;;7.72;56.10
76728;BME280;65652;53.132;18.026;2023-02-28T08:56:31;102809.64;;;7.80;55.40
76728;BME280;65652;53.132;18.026;2023-02-28T08:58:57;102808.58;;;7.88;55.09
76728;BME280;65652;53.132;18.026;2023-02-28T09:01:26;102807.05;;;8.11;54.93
76728;BME280;65652;53.132;18.026;2023-02-28T09:03:56;102807.71;;;8.40;54.46
76728;BME280;65652;53.132;18.026;2023-02-28T09:06:25;102808.17;;;8.62;53.85
76728;BME280;65652;53.132;18.026;2023-02-28T09:08:51;102811.48;;;8.81;53.44
76728;BME280;65652;53.132;18.026;2023-02-28T09:11:18;102809.96;;;9.03;52.98
76728;BME280;65652;53.132;18.026;2023-02-28T09:13:45;102812.41;;;9.25;52.55
76728;BME280;65652;53.132;18.026;2023-02-28T09:16:13;102813.16;;;9.46;52.11
76728;BME280;65652;53.132;18.026;2023-02-28T09:18:40;102809.39;;;9.62;51.04
76728;BME280;65652;53.132;18.026;2023-02-28T09:21:13;102808.99;;;9.66;50.83
76728;BME280;65652;53.132;18.026;2023-02-28T09:23:45;102798.60;;;9.72;50.52
76728;BME280;65652;53.132;18.026;2023-02-28T09:26:17;102802.95;;;9.88;50.00
76728;BME280;65652;53.132;18.026;2023-02-28T09:28:43;102802.49;;;10.07;49.65
76728;BME280;65652;53.132;18.026;2023-02-28T09:31:18;102801.63;;;10.27;49.33
76728;BME280;65652;53.132;18.026;2023-02-28T09:33:53;102802.42;;;10.49;48.71
76728;BME280;65652;53.132;18.026;2023-02-28T09:36:21;102799.97;;;10.62;48.19
76728;BME280;65652;53.132;18.026;2023-02-28T09:38:48;102800.36;;;10.67;47.02
76728;BME280;65652;53.132;18.026;2023-02-28T09:41:22;102806.41;;;10.54;46.54
76728;BME280;65652;53.132;18.026;2023-02-28T09:43:50;102807.09;;;10.44;47.07
76728;BME280;65652;53.132;18.026;2023-02-28T09:49:07;102805.46;;;10.71;46.59
76728;BME280;65652;53.132;18.026;2023-02-28T09:54:20;102808.66;;;11.00;45.53
76728;BME280;65652;53.132;18.026;2023-02-28T09:56:56;102805.40;;;11.01;44.93
76728;BME280;65652;53.132;18.026;2023-02-28T10:05:27;102795.53;;;11.41;44.49
76728;BME280;65652;53.132;18.026;2023-02-28T10:10:45;102799.19;;;11.73;43.24
76728;BME280;65652;53.132;18.026;2023-02-28T10:13:17;102794.66;;;11.89;43.27
76728;BME280;65652;53.132;18.026;2023-02-28T10:15:51;102793.27;;;11.95;42.86
76728;BME280;65652;53.132;18.026;2023-02-28T10:18:25;102798.95;;;11.97;42.66
76728;BME280;65652;53.132;18.026;2023-02-28T10:20:55;102796.89;;;11.99;42.64
76728;BME280;65652;53.132;18.026;2023-02-28T10:23:27;102797.95;;;12.03;42.21
76728;BME280;65652;53.132;18.026;2023-02-28T10:25:58;102794.64;;;11.96;41.16
76728;BME280;65652;53.132;18.026;2023-02-28T10:28:32;102790.67;;;11.91;41.77
76728;BME280;65652;53.132;18.026;2023-02-28T10:30:58;102785.97;;;12.04;41.09
76728;BME280;65652;53.132;18.026;2023-02-28T10:33:30;102780.86;;;12.15;40.80
76728;BME280;65652;53.132;18.026;2023-02-28T10:35:58;102777.14;;;12.16;40.53
76728;BME280;65652;53.132;18.026;2023-02-28T10:38:27;102772.99;;;11.96;39.66
76728;BME280;65652;53.132;18.026;2023-02-28T10:41:10;102777.13;;;11.80;40.59
76728;BME280;65652;53.132;18.026;2023-02-28T10:43:38;102771.02;;;12.00;40.44
76728;BME280;65652;53.132;18.026;2023-02-28T10:48:39;102761.86;;;12.53;39.57
76728;BME280;65652;53.132;18.026;2023-02-28T10:51:11;102757.36;;;12.73;39.07
76728;BME280;65652;53.132;18.026;2023-02-28T10:53:50;102759.01;;;12.90;38.83
76728;BME280;65652;53.132;18.026;2023-02-28T10:56:22;102754.95;;;13.03;38.41
76728;BME280;65652;53.132;18.026;2023-02-28T11:01:21;102753.88;;;13.30;37.03
76728;BME280;65652;53.132;18.026;2023-02-28T11:03:48;102750.13;;;13.12;36.71
76728;BME280;65652;53.132;18.026;2023-02-28T11:06:19;102747.80;;;12.90;37.09
76728;BME280;65652;53.132;18.026;2023-02-28T11:08:49;102746.08;;;12.84;36.92
76728;BME280;65652;53.132;18.026;2023-02-28T11:11:17;102752.02;;;12.91;37.59
76728;BME280;65652;53.132;18.026;2023-02-28T11:13:46;102748.92;;;13.14;37.15
76728;BME280;65652;53.132;18.026;2023-02-28T11:16:14;102738.52;;;13.40;37.08
76728;BME280;65652;53.132;18.026;2023-02-28T11:21:16;102736.05;;;13.68;36.61
76728;BME280;65652;53.132;18.026;2023-02-28T11:23:44;102734.06;;;13.79;36.19
76728;BME280;65652;53.132;18.026;2023-02-28T11:26:11;102734.76;;;13.90;35.74
76728;BME280;65652;53.132;18.026;2023-02-28T11:28:41;102733.13;;;13.95;35.31
76728;BME280;65652;53.132;18.026;2023-02-28T11:38:53;102725.63;;;14.29;34.61
76728;BME280;65652;53.132;18.026;2023-02-28T11:44:23;102716.44;;;14.48;34.30
76728;BME280;65652;53.132;18.026;2023-02-28T11:47:21;102710.34;;;14.71;34.14
76728;BME280;65652;53.132;18.026;2023-02-28T11:50:07;102711.42;;;15.02;33.74
76728;BME280;65652;53.132;18.026;2023-02-28T11:52:52;102707.13;;;15.14;33.47
76728;BME280;65652;53.132;18.026;2023-02-28T12:00:39;102706.21;;;15.33;32.92
76728;BME280;65652;53.132;18.026;2023-02-28T12:08:58;102690.64;;;15.63;32.27
76728;BME280;65652;53.132;18.026;2023-02-28T12:11:53;102692.44;;;15.51;31.31
76728;BME280;65652;53.132;18.026;2023-02-28T12:19:48;102691.42;;;14.50;32.09
76728;BME280;65652;53.132;18.026;2023-02-28T12:28:10;102688.83;;;14.92;31.81
76728;BME280;65652;53.132;18.026;2023-02-28T12:30:43;102688.11;;;14.78;31.96
76728;BME280;65652;53.132;18.026;2023-02-28T12:33:14;102686.17;;;14.78;32.06
76728;BME280;65652;53.132;18.026;2023-02-28T12:35:47;102686.73;;;14.77;31.93
76728;BME280;65652;53.132;18.026;2023-02-28T12:38:24;102685.80;;;14.78;32.11
76728;BME280;65652;53.132;18.026;2023-02-28T12:41:00;102685.02;;;14.93;31.84
76728;BME280;65652;53.132;18.026;2023-02-28T12:43:42;102685.06;;;15.00;31.51
76728;BME280;65652;53.132;18.026;2023-02-28T12:46:15;102678.31;;;15.04;31.56
76728;BME280;65652;53.132;18.026;2023-02-28T12:48:49;102674.52;;;15.15;31.38
76728;BME280;65652;53.132;18.026;2023-02-28T12:51:17;102666.09;;;15.11;30.81
76728;BME280;65652;53.132;18.026;2023-02-28T12:59:56;102662.21;;;14.75;30.85
76728;BME280;65652;53.132;18.026;2023-02-28T13:11:04;102647.18;;;14.61;31.02
76728;BME280;65652;53.132;18.026;2023-02-28T13:13:31;102647.10;;;14.60;30.68
76728;BME280;65652;53.132;18.026;2023-02-28T13:18:46;102645.73;;;14.57;30.69
76728;BME280;65652;53.132;18.026;2023-02-28T13:21:24;102642.58;;;14.66;30.74
76728;BME280;65652;53.132;18.026;2023-02-28T13:34:36;102641.69;;;14.04;30.49
76728;BME280;65652;53.132;18.026;2023-02-28T13:39:50;102622.36;;;16.54;28.81
76728;BME280;65652;53.132;18.026;2023-02-28T13:42:36;102620.02;;;18.08;27.40
76728;BME280;65652;53.132;18.026;2023-02-28T13:50:32;102599.16;;;22.18;24.22
76728;BME280;65652;53.132;18.026;2023-02-28T14:01:06;102581.16;;;24.07;21.42
76728;BME280;65652;53.132;18.026;2023-02-28T14:06:38;102565.19;;;24.51;19.29
76728;BME280;65652;53.132;18.026;2023-02-28T14:09:11;102563.88;;;24.28;20.03
76728;BME280;65652;53.132;18.026;2023-02-28T14:11:43;102561.34;;;24.55;19.89
76728;BME280;65652;53.132;18.026;2023-02-28T14:17:04;102557.67;;;25.26;19.49
76728;BME280;65652;53.132;18.026;2023-02-28T14:19:32;102558.36;;;25.59;18.85
76728;BME280;65652;53.132;18.026;2023-02-28T14:30:29;102562.88;;;23.71;18.73
76728;BME280;65652;53.132;18.026;2023-02-28T14:38:31;102560.72;;;19.55;20.85
76728;BME280;65652;53.132;18.026;2023-02-28T14:41:03;102565.02;;;18.01;21.62
76728;BME280;65652;53.132;18.026;2023-02-28T14:43:31;102562.01;;;16.80;22.34
76728;BME280;65652;53.132;18.026;2023-02-28T14:46:00;102562.29;;;15.79;23.56
76728;BME280;65652;53.132;18.026;2023-02-28T14:48:27;102569.18;;;15.07;24.29
76728;BME280;65652;53.132;18.026;2023-02-28T14:50:56;102570.27;;;14.48;24.91
76728;BME280;65652;53.132;18.026;2023-02-28T14:53:27;102573.98;;;13.92;25.48
76728;BME280;65652;53.132;18.026;2023-02-28T14:55:54;102580.48;;;13.41;25.99
76728;BME280;65652;53.132;18.026;2023-02-28T14:58:32;102578.08;;;12.96;26.35
76728;BME280;65652;53.132;18.026;2023-02-28T15:01:02;102581.90;;;12.33;27.00
76728;BME280;65652;53.132;18.026;2023-02-28T15:03:39;102585.44;;;11.86;27.68
76728;BME280;65652;53.132;18.026;2023-02-28T15:06:14;102588.84;;;11.44;28.28
76728;BME280;65652;53.132;18.026;2023-02-28T15:08:40;102587.61;;;11.27;28.23
76728;BME280;65652;53.132;18.026;2023-02-28T15:13:42;102589.05;;;11.06;28.94
76728;BME280;65652;53.132;18.026;2023-02-28T15:16:17;102591.05;;;10.87;29.24
76728;BME280;65652;53.132;18.026;2023-02-28T15:18:52;102588.98;;;10.53;29.21
76728;BME280;65652;53.132;18.026;2023-02-28T15:21:22;102588.67;;;10.18;29.73
76728;BME280;65652;53.132;18.026;2023-02-28T15:23:55;102589.30;;;9.83;30.19
76728;BME280;65652;53.132;18.026;2023-02-28T15:26:26;102587.97;;;9.56;30.21
76728;BME280;65652;53.132;18.026;2023-02-28T15:28:58;102588.61;;;9.30;30.76
76728;BME280;65652;53.132;18.026;2023-02-28T15:31:28;102587.74;;;8.99;31.22